sensor_id;sensor_type;location;lat;lon;timestamp;P1;durP1;ratioP1;P2;durP2;ratioP2
36009;SDS011;22076;52.182;5.404;2023-07-16T00:01:48;6.00;;;2.25;;
36009;SDS011;22076;52.182;5.404;2023-07-16T00:04:14;7.30;;;1.80;;
36009;SDS011;22076;52.182;5.404;2023-07-16T00:06:41;6.97;;;1.92;;
36009;SDS011;22076;52.182;5.404;2023-07-16T00:09:07;6.28;;;1.90;;
36009;SDS011;22076;52.182;5.404;2023-07-16T00:11:35;9.57;;;2.22;;
36009;SDS011;22076;52.182;5.404;2023-07-16T00:14:02;9.77;;;2.45;;
36009;SDS011;22076;52.182;5.404;2023-07-16T00:16:29;7.15;;;1.90;;
36009;SDS011;22076;52.182;5.404;2023-07-16T00:18:55;8.18;;;2.47;;
36009;SDS011;22076;52.182;5.404;2023-07-16T00:21:22;7.05;;;2.53;;
36009;SDS011;22076;52.182;5.404;2023-07-16T00:23:49;6.60;;;2.20;;
36009;SDS011;22076;52.182;5.404;2023-07-16T00:26:16;6.82;;;2.38;;
36009;SDS011;22076;52.182;5.404;2023-07-16T00:28:44;8.48;;;2.45;;
36009;SDS011;22076;52.182;5.404;2023-07-16T00:31:10;9.55;;;3.17;;
36009;SDS011;22076;52.182;5.404;2023-07-16T00:33:37;5.35;;;2.53;;
36009;SDS011;22076;52.182;5.404;2023-07-16T00:36:03;9.85;;;2.95;;
36009;SDS011;22076;52.182;5.404;2023-07-16T00:38:30;13.40;;;2.47;;
36009;SDS011;22076;52.182;5.404;2023-07-16T00:40:57;5.40;;;2.17;;
36009;SDS011;22076;52.182;5.404;2023-07-16T00:43:23;7.03;;;2.53;;
36009;SDS011;22076;52.182;5.404;2023-07-16T00:45:51;11.70;;;3.33;;
36009;SDS011;22076;52.182;5.404;2023-07-16T00:48:18;5.53;;;2.30;;
36009;SDS011;22076;52.182;5.404;2023-07-16T00:50:45;6.07;;;2.15;;
36009;SDS011;22076;52.182;5.404;2023-07-16T00:53:12;7.80;;;2.42;;
36009;SDS011;22076;52.182;5.404;2023-07-16T00:55:38;9.18;;;2.83;;
36009;SDS011;22076;52.182;5.404;2023-07-16T00:58:06;7.68;;;2.17;;
36009;SDS011;22076;52.182;5.404;2023-07-16T01:00:33;9.55;;;2.83;;
36009;SDS011;22076;52.182;5.404;2023-07-16T01:03:02;10.23;;;2.80;;
36009;SDS011;22076;52.182;5.404;2023-07-16T01:05:31;12.65;;;2.75;;
36009;SDS011;22076;52.182;5.404;2023-07-16T01:08:02;5.78;;;2.50;;
36009;SDS011;22076;52.182;5.404;2023-07-16T01:10:30;5.70;;;2.58;;
36009;SDS011;22076;52.182;5.404;2023-07-16T01:12:57;8.18;;;2.85;;
36009;SDS011;22076;52.182;5.404;2023-07-16T01:15:24;9.05;;;2.80;;
36009;SDS011;22076;52.182;5.404;2023-07-16T01:17:51;7.68;;;1.85;;
36009;SDS011;22076;52.182;5.404;2023-07-16T01:20:19;8.90;;;2.92;;
36009;SDS011;22076;52.182;5.404;2023-07-16T01:22:48;8.95;;;2.95;;
36009;SDS011;22076;52.182;5.404;2023-07-16T01:25:36;8.18;;;2.88;;
36009;SDS011;22076;52.182;5.404;2023-07-16T01:28:21;9.02;;;3.00;;
36009;SDS011;22076;52.182;5.404;2023-07-16T01:30:58;8.85;;;3.03;;
36009;SDS011;22076;52.182;5.404;2023-07-16T01:33:25;7.18;;;2.58;;
36009;SDS011;22076;52.182;5.404;2023-07-16T01:35:52;8.60;;;3.03;;
36009;SDS011;22076;52.182;5.404;2023-07-16T01:38:19;7.93;;;2.95;;
36009;SDS011;22076;52.182;5.404;2023-07-16T01:40:46;7.22;;;2.95;;
36009;SDS011;22076;52.182;5.404;2023-07-16T01:43:12;6.85;;;2.67;;
36009;SDS011;22076;52.182;5.404;2023-07-16T01:45:39;9.93;;;3.47;;
36009;SDS011;22076;52.182;5.404;2023-07-16T01:48:12;6.07;;;2.72;;
36009;SDS011;22076;52.182;5.404;2023-07-16T01:50:41;7.57;;;3.13;;
36009;SDS011;22076;52.182;5.404;2023-07-16T01:53:08;10.43;;;3.50;;
36009;SDS011;22076;52.182;5.404;2023-07-16T01:55:34;9.18;;;3.08;;
36009;SDS011;22076;52.182;5.404;2023-07-16T01:58:01;7.75;;;2.90;;
36009;SDS011;22076;52.182;5.404;2023-07-16T02:00:28;11.88;;;3.78;;
36009;SDS011;22076;52.182;5.404;2023-07-16T02:02:54;7.95;;;2.83;;
36009;SDS011;22076;52.182;5.404;2023-07-16T02:05:22;11.32;;;3.72;;
36009;SDS011;22076;52.182;5.404;2023-07-16T02:07:49;10.52;;;4.35;;
36009;SDS011;22076;52.182;5.404;2023-07-16T02:10:16;7.88;;;3.03;;
36009;SDS011;22076;52.182;5.404;2023-07-16T02:12:42;10.70;;;3.53;;
36009;SDS011;22076;52.182;5.404;2023-07-16T02:15:09;10.30;;;3.88;;
36009;SDS011;22076;52.182;5.404;2023-07-16T02:17:36;8.63;;;3.45;;
36009;SDS011;22076;52.182;5.404;2023-07-16T02:20:03;9.77;;;3.00;;
36009;SDS011;22076;52.182;5.404;2023-07-16T02:22:32;16.20;;;3.97;;
36009;SDS011;22076;52.182;5.404;2023-07-16T02:24:59;9.63;;;4.18;;
36009;SDS011;22076;52.182;5.404;2023-07-16T02:27:26;8.18;;;3.17;;
36009;SDS011;22076;52.182;5.404;2023-07-16T02:29:53;12.27;;;3.50;;
36009;SDS011;22076;52.182;5.404;2023-07-16T02:32:19;15.30;;;5.32;;
36009;SDS011;22076;52.182;5.404;2023-07-16T02:34:46;10.55;;;4.18;;
36009;SDS011;22076;52.182;5.404;2023-07-16T02:37:13;9.98;;;3.72;;
36009;SDS011;22076;52.182;5.404;2023-07-16T02:39:44;11.30;;;4.28;;
36009;SDS011;22076;52.182;5.404;2023-07-16T02:42:11;7.70;;;3.08;;
36009;SDS011;22076;52.182;5.404;2023-07-16T02:44:38;15.00;;;4.18;;
36009;SDS011;22076;52.182;5.404;2023-07-16T02:47:08;12.63;;;4.70;;
36009;SDS011;22076;52.182;5.404;2023-07-16T02:49:35;6.63;;;3.63;;
36009;SDS011;22076;52.182;5.404;2023-07-16T02:52:02;9.43;;;4.05;;
36009;SDS011;22076;52.182;5.404;2023-07-16T02:54:28;9.57;;;4.15;;
36009;SDS011;22076;52.182;5.404;2023-07-16T02:56:56;9.90;;;3.47;;
36009;SDS011;22076;52.182;5.404;2023-07-16T02:59:23;12.85;;;4.22;;
36009;SDS011;22076;52.182;5.404;2023-07-16T03:01:50;11.55;;;3.65;;
36009;SDS011;22076;52.182;5.404;2023-07-16T03:04:17;11.80;;;4.30;;
36009;SDS011;22076;52.182;5.404;2023-07-16T03:06:44;8.98;;;3.67;;
36009;SDS011;22076;52.182;5.404;2023-07-16T03:09:10;13.68;;;4.85;;
36009;SDS011;22076;52.182;5.404;2023-07-16T03:11:37;16.48;;;4.55;;
36009;SDS011;22076;52.182;5.404;2023-07-16T03:14:05;15.35;;;4.30;;
36009;SDS011;22076;52.182;5.404;2023-07-16T03:16:31;8.93;;;3.60;;
36009;SDS011;22076;52.182;5.404;2023-07-16T03:18:58;8.57;;;3.00;;
36009;SDS011;22076;52.182;5.404;2023-07-16T03:21:25;10.30;;;4.13;;
36009;SDS011;22076;52.182;5.404;2023-07-16T03:23:52;10.90;;;4.25;;
36009;SDS011;22076;52.182;5.404;2023-07-16T03:26:19;12.40;;;3.78;;
36009;SDS011;22076;52.182;5.404;2023-07-16T03:28:45;15.82;;;3.53;;
36009;SDS011;22076;52.182;5.404;2023-07-16T03:31:13;8.73;;;3.50;;
36009;SDS011;22076;52.182;5.404;2023-07-16T03:33:40;13.95;;;3.63;;
36009;SDS011;22076;52.182;5.404;2023-07-16T03:36:06;8.05;;;3.88;;
36009;SDS011;22076;52.182;5.404;2023-07-16T03:38:33;9.07;;;3.50;;
36009;SDS011;22076;52.182;5.404;2023-07-16T03:41:00;9.32;;;3.67;;
36009;SDS011;22076;52.182;5.404;2023-07-16T03:43:27;8.60;;;3.80;;
36009;SDS011;22076;52.182;5.404;2023-07-16T03:45:54;12.13;;;3.80;;
36009;SDS011;22076;52.182;5.404;2023-07-16T03:48:21;9.25;;;4.50;;
36009;SDS011;22076;52.182;5.404;2023-07-16T03:50:48;7.65;;;3.58;;
36009;SDS011;22076;52.182;5.404;2023-07-16T03:53:15;12.20;;;3.60;;
36009;SDS011;22076;52.182;5.404;2023-07-16T03:55:41;10.80;;;4.30;;
36009;SDS011;22076;52.182;5.404;2023-07-16T03:58:08;9.50;;;3.92;;
36009;SDS011;22076;52.182;5.404;2023-07-16T04:00:34;14.18;;;4.13;;
36009;SDS011;22076;52.182;5.404;2023-07-16T04:03:01;12.05;;;4.00;;
36009;SDS011;22076;52.182;5.404;2023-07-16T04:05:29;13.60;;;4.20;;
36009;SDS011;22076;52.182;5.404;2023-07-16T04:07:55;9.93;;;3.78;;
36009;SDS011;22076;52.182;5.404;2023-07-16T04:10:22;9.88;;;3.35;;
36009;SDS011;22076;52.182;5.404;2023-07-16T04:12:49;10.30;;;4.78;;
36009;SDS011;22076;52.182;5.404;2023-07-16T04:15:15;10.18;;;3.67;;
36009;SDS011;22076;52.182;5.404;2023-07-16T04:17:42;7.03;;;3.60;;
36009;SDS011;22076;52.182;5.404;2023-07-16T04:20:08;9.38;;;3.45;;
36009;SDS011;22076;52.182;5.404;2023-07-16T04:22:37;9.93;;;3.33;;
36009;SDS011;22076;52.182;5.404;2023-07-16T04:25:05;11.93;;;3.47;;
36009;SDS011;22076;52.182;5.404;2023-07-16T04:27:32;9.95;;;3.70;;
36009;SDS011;22076;52.182;5.404;2023-07-16T04:29:59;9.07;;;4.13;;
36009;SDS011;22076;52.182;5.404;2023-07-16T04:32:25;9.98;;;4.70;;
36009;SDS011;22076;52.182;5.404;2023-07-16T04:34:52;14.40;;;4.65;;
36009;SDS011;22076;52.182;5.404;2023-07-16T04:37:19;11.23;;;4.38;;
36009;SDS011;22076;52.182;5.404;2023-07-16T04:39:47;8.18;;;3.83;;
36009;SDS011;22076;52.182;5.404;2023-07-16T04:42:13;9.68;;;3.92;;
36009;SDS011;22076;52.182;5.404;2023-07-16T04:44:41;9.50;;;4.10;;
36009;SDS011;22076;52.182;5.404;2023-07-16T04:47:08;8.45;;;3.83;;
36009;SDS011;22076;52.182;5.404;2023-07-16T04:49:35;9.23;;;3.67;;
36009;SDS011;22076;52.182;5.404;2023-07-16T04:52:01;16.02;;;5.47;;
36009;SDS011;22076;52.182;5.404;2023-07-16T04:54:28;11.70;;;4.20;;
36009;SDS011;22076;52.182;5.404;2023-07-16T04:56:56;11.15;;;4.95;;
36009;SDS011;22076;52.182;5.404;2023-07-16T04:59:23;11.32;;;5.05;;
36009;SDS011;22076;52.182;5.404;2023-07-16T05:01:49;14.57;;;4.72;;
36009;SDS011;22076;52.182;5.404;2023-07-16T05:04:16;8.35;;;4.03;;
36009;SDS011;22076;52.182;5.404;2023-07-16T05:06:42;8.00;;;4.30;;
36009;SDS011;22076;52.182;5.404;2023-07-16T05:09:09;6.55;;;3.88;;
36009;SDS011;22076;52.182;5.404;2023-07-16T05:11:35;9.25;;;4.60;;
36009;SDS011;22076;52.182;5.404;2023-07-16T05:14:04;14.98;;;4.63;;
36009;SDS011;22076;52.182;5.404;2023-07-16T05:16:31;10.98;;;4.60;;
36009;SDS011;22076;52.182;5.404;2023-07-16T05:18:57;11.10;;;4.70;;
36009;SDS011;22076;52.182;5.404;2023-07-16T05:21:24;12.05;;;4.80;;
36009;SDS011;22076;52.182;5.404;2023-07-16T05:23:50;13.82;;;4.90;;
36009;SDS011;22076;52.182;5.404;2023-07-16T05:26:17;14.68;;;5.00;;
36009;SDS011;22076;52.182;5.404;2023-07-16T05:28:44;13.40;;;4.65;;
36009;SDS011;22076;52.182;5.404;2023-07-16T05:31:12;9.00;;;4.10;;
36009;SDS011;22076;52.182;5.404;2023-07-16T05:33:38;10.63;;;4.78;;
36009;SDS011;22076;52.182;5.404;2023-07-16T05:36:05;13.50;;;5.43;;
36009;SDS011;22076;52.182;5.404;2023-07-16T05:38:31;8.88;;;4.22;;
36009;SDS011;22076;52.182;5.404;2023-07-16T05:40:59;11.75;;;5.13;;
36009;SDS011;22076;52.182;5.404;2023-07-16T05:43:28;7.00;;;4.00;;
36009;SDS011;22076;52.182;5.404;2023-07-16T05:45:54;8.57;;;4.55;;
36009;SDS011;22076;52.182;5.404;2023-07-16T05:48:23;10.88;;;5.05;;
36009;SDS011;22076;52.182;5.404;2023-07-16T05:50:49;8.85;;;3.90;;
36009;SDS011;22076;52.182;5.404;2023-07-16T05:53:16;11.90;;;4.70;;
36009;SDS011;22076;52.182;5.404;2023-07-16T05:55:43;12.45;;;5.35;;
36009;SDS011;22076;52.182;5.404;2023-07-16T05:58:10;8.68;;;4.47;;
36009;SDS011;22076;52.182;5.404;2023-07-16T06:00:36;13.15;;;4.93;;
36009;SDS011;22076;52.182;5.404;2023-07-16T06:03:04;12.80;;;5.35;;
36009;SDS011;22076;52.182;5.404;2023-07-16T06:05:32;15.70;;;6.20;;
36009;SDS011;22076;52.182;5.404;2023-07-16T06:07:59;12.63;;;5.45;;
36009;SDS011;22076;52.182;5.404;2023-07-16T06:10:26;10.02;;;5.30;;
36009;SDS011;22076;52.182;5.404;2023-07-16T06:12:53;10.60;;;5.13;;
36009;SDS011;22076;52.182;5.404;2023-07-16T06:15:19;13.80;;;5.40;;
36009;SDS011;22076;52.182;5.404;2023-07-16T06:17:46;9.73;;;5.43;;
36009;SDS011;22076;52.182;5.404;2023-07-16T06:20:13;11.00;;;4.63;;
36009;SDS011;22076;52.182;5.404;2023-07-16T06:22:41;9.65;;;4.20;;
36009;SDS011;22076;52.182;5.404;2023-07-16T06:25:07;7.53;;;4.00;;
36009;SDS011;22076;52.182;5.404;2023-07-16T06:27:35;9.23;;;4.57;;
36009;SDS011;22076;52.182;5.404;2023-07-16T06:30:02;16.98;;;5.97;;
36009;SDS011;22076;52.182;5.404;2023-07-16T06:32:30;10.38;;;5.00;;
36009;SDS011;22076;52.182;5.404;2023-07-16T06:34:57;12.52;;;4.85;;
36009;SDS011;22076;52.182;5.404;2023-07-16T06:37:24;10.90;;;5.20;;
36009;SDS011;22076;52.182;5.404;2023-07-16T06:39:52;12.45;;;4.80;;
36009;SDS011;22076;52.182;5.404;2023-07-16T06:42:18;14.57;;;4.75;;
36009;SDS011;22076;52.182;5.404;2023-07-16T06:44:45;10.85;;;4.90;;
36009;SDS011;22076;52.182;5.404;2023-07-16T06:47:11;9.20;;;4.43;;
36009;SDS011;22076;52.182;5.404;2023-07-16T06:49:38;9.93;;;5.50;;
36009;SDS011;22076;52.182;5.404;2023-07-16T06:52:05;16.02;;;5.90;;
36009;SDS011;22076;52.182;5.404;2023-07-16T06:54:32;10.32;;;4.32;;
36009;SDS011;22076;52.182;5.404;2023-07-16T06:57:01;10.88;;;4.63;;
36009;SDS011;22076;52.182;5.404;2023-07-16T06:59:27;11.13;;;5.32;;
36009;SDS011;22076;52.182;5.404;2023-07-16T07:01:54;11.02;;;5.47;;
36009;SDS011;22076;52.182;5.404;2023-07-16T07:04:20;12.38;;;5.20;;
36009;SDS011;22076;52.182;5.404;2023-07-16T07:06:47;8.18;;;4.68;;
36009;SDS011;22076;52.182;5.404;2023-07-16T07:09:14;9.10;;;5.07;;
36009;SDS011;22076;52.182;5.404;2023-07-16T07:11:40;10.02;;;4.88;;
36009;SDS011;22076;52.182;5.404;2023-07-16T07:14:08;13.98;;;5.63;;
36009;SDS011;22076;52.182;5.404;2023-07-16T07:16:35;14.00;;;5.32;;
36009;SDS011;22076;52.182;5.404;2023-07-16T07:19:01;11.73;;;5.72;;
36009;SDS011;22076;52.182;5.404;2023-07-16T07:21:28;12.32;;;5.10;;
36009;SDS011;22076;52.182;5.404;2023-07-16T07:23:55;9.68;;;4.18;;
36009;SDS011;22076;52.182;5.404;2023-07-16T07:26:22;9.70;;;4.55;;
36009;SDS011;22076;52.182;5.404;2023-07-16T07:28:48;10.80;;;5.43;;
36009;SDS011;22076;52.182;5.404;2023-07-16T07:31:16;10.38;;;4.80;;
36009;SDS011;22076;52.182;5.404;2023-07-16T07:33:43;15.32;;;5.45;;
36009;SDS011;22076;52.182;5.404;2023-07-16T07:36:09;11.45;;;4.88;;
36009;SDS011;22076;52.182;5.404;2023-07-16T07:38:36;8.40;;;4.47;;
36009;SDS011;22076;52.182;5.404;2023-07-16T07:41:04;12.50;;;5.07;;
36009;SDS011;22076;52.182;5.404;2023-07-16T07:43:30;8.57;;;4.43;;
36009;SDS011;22076;52.182;5.404;2023-07-16T07:45:57;12.88;;;5.32;;
36009;SDS011;22076;52.182;5.404;2023-07-16T07:48:25;14.68;;;6.10;;
36009;SDS011;22076;52.182;5.404;2023-07-16T07:50:51;11.45;;;4.72;;
36009;SDS011;22076;52.182;5.404;2023-07-16T07:53:18;11.00;;;5.07;;
36009;SDS011;22076;52.182;5.404;2023-07-16T07:55:45;11.23;;;4.80;;
36009;SDS011;22076;52.182;5.404;2023-07-16T07:58:12;10.98;;;5.05;;
36009;SDS011;22076;52.182;5.404;2023-07-16T08:00:38;15.07;;;5.68;;
36009;SDS011;22076;52.182;5.404;2023-07-16T08:03:05;9.27;;;5.63;;
36009;SDS011;22076;52.182;5.404;2023-07-16T08:05:33;15.38;;;4.97;;
36009;SDS011;22076;52.182;5.404;2023-07-16T08:07:59;12.98;;;5.47;;
36009;SDS011;22076;52.182;5.404;2023-07-16T08:10:26;9.38;;;5.07;;
36009;SDS011;22076;52.182;5.404;2023-07-16T08:12:53;11.68;;;5.82;;
36009;SDS011;22076;52.182;5.404;2023-07-16T08:15:19;9.68;;;4.90;;
36009;SDS011;22076;52.182;5.404;2023-07-16T08:17:46;14.68;;;5.93;;
36009;SDS011;22076;52.182;5.404;2023-07-16T08:20:13;9.40;;;5.40;;
36009;SDS011;22076;52.182;5.404;2023-07-16T08:22:41;13.30;;;6.00;;
36009;SDS011;22076;52.182;5.404;2023-07-16T08:25:07;9.88;;;4.95;;
36009;SDS011;22076;52.182;5.404;2023-07-16T08:27:34;12.80;;;5.80;;
36009;SDS011;22076;52.182;5.404;2023-07-16T08:30:01;11.40;;;5.25;;
36009;SDS011;22076;52.182;5.404;2023-07-16T08:32:27;14.68;;;5.63;;
36009;SDS011;22076;52.182;5.404;2023-07-16T08:34:54;13.27;;;5.70;;
36009;SDS011;22076;52.182;5.404;2023-07-16T08:37:21;9.27;;;4.50;;
36009;SDS011;22076;52.182;5.404;2023-07-16T08:39:51;10.77;;;5.30;;
36009;SDS011;22076;52.182;5.404;2023-07-16T08:42:18;6.97;;;4.25;;
36009;SDS011;22076;52.182;5.404;2023-07-16T08:44:45;12.07;;;5.03;;
36009;SDS011;22076;52.182;5.404;2023-07-16T08:47:13;9.52;;;5.10;;
36009;SDS011;22076;52.182;5.404;2023-07-16T08:49:39;15.35;;;5.53;;
36009;SDS011;22076;52.182;5.404;2023-07-16T08:52:07;11.70;;;5.45;;
36009;SDS011;22076;52.182;5.404;2023-07-16T08:54:34;12.57;;;5.72;;
36009;SDS011;22076;52.182;5.404;2023-07-16T08:57:02;11.43;;;5.82;;
36009;SDS011;22076;52.182;5.404;2023-07-16T08:59:28;12.57;;;5.45;;
36009;SDS011;22076;52.182;5.404;2023-07-16T09:01:55;10.25;;;4.75;;
36009;SDS011;22076;52.182;5.404;2023-07-16T09:04:22;16.90;;;5.82;;
36009;SDS011;22076;52.182;5.404;2023-07-16T09:06:49;10.05;;;4.72;;
36009;SDS011;22076;52.182;5.404;2023-07-16T09:09:19;14.85;;;6.05;;
36009;SDS011;22076;52.182;5.404;2023-07-16T09:11:47;9.63;;;5.18;;
36009;SDS011;22076;52.182;5.404;2023-07-16T09:14:16;11.63;;;5.65;;
36009;SDS011;22076;52.182;5.404;2023-07-16T09:16:47;10.85;;;4.63;;
36009;SDS011;22076;52.182;5.404;2023-07-16T09:19:14;16.83;;;5.50;;
36009;SDS011;22076;52.182;5.404;2023-07-16T09:21:45;9.98;;;6.15;;
36009;SDS011;22076;52.182;5.404;2023-07-16T09:24:12;9.35;;;4.50;;
36009;SDS011;22076;52.182;5.404;2023-07-16T09:26:39;11.75;;;5.22;;
36009;SDS011;22076;52.182;5.404;2023-07-16T09:29:13;12.35;;;5.68;;
36009;SDS011;22076;52.182;5.404;2023-07-16T09:31:41;11.95;;;5.75;;
36009;SDS011;22076;52.182;5.404;2023-07-16T09:34:18;12.13;;;4.95;;
36009;SDS011;22076;52.182;5.404;2023-07-16T09:36:46;15.80;;;5.97;;
36009;SDS011;22076;52.182;5.404;2023-07-16T09:39:13;11.23;;;5.10;;
36009;SDS011;22076;52.182;5.404;2023-07-16T09:41:41;11.43;;;5.53;;
36009;SDS011;22076;52.182;5.404;2023-07-16T09:44:08;10.98;;;5.63;;
36009;SDS011;22076;52.182;5.404;2023-07-16T09:46:35;14.18;;;5.50;;
36009;SDS011;22076;52.182;5.404;2023-07-16T09:49:03;8.85;;;4.88;;
36009;SDS011;22076;52.182;5.404;2023-07-16T09:51:30;11.32;;;5.10;;
36009;SDS011;22076;52.182;5.404;2023-07-16T09:53:57;12.55;;;5.50;;
36009;SDS011;22076;52.182;5.404;2023-07-16T09:56:26;8.27;;;5.20;;
36009;SDS011;22076;52.182;5.404;2023-07-16T09:58:56;9.13;;;4.95;;
36009;SDS011;22076;52.182;5.404;2023-07-16T10:01:25;11.57;;;5.45;;
36009;SDS011;22076;52.182;5.404;2023-07-16T10:03:52;14.90;;;5.97;;
36009;SDS011;22076;52.182;5.404;2023-07-16T10:06:20;10.55;;;5.40;;
36009;SDS011;22076;52.182;5.404;2023-07-16T10:08:48;12.07;;;6.13;;
36009;SDS011;22076;52.182;5.404;2023-07-16T10:11:15;9.88;;;4.40;;
36009;SDS011;22076;52.182;5.404;2023-07-16T10:13:43;10.48;;;4.78;;
36009;SDS011;22076;52.182;5.404;2023-07-16T10:16:19;11.45;;;5.40;;
36009;SDS011;22076;52.182;5.404;2023-07-16T10:18:49;11.20;;;5.00;;
36009;SDS011;22076;52.182;5.404;2023-07-16T10:21:22;7.72;;;4.63;;
36009;SDS011;22076;52.182;5.404;2023-07-16T10:23:56;8.82;;;4.80;;
36009;SDS011;22076;52.182;5.404;2023-07-16T10:26:25;10.13;;;5.10;;
36009;SDS011;22076;52.182;5.404;2023-07-16T10:28:53;8.80;;;5.15;;
36009;SDS011;22076;52.182;5.404;2023-07-16T10:31:20;8.88;;;4.72;;
36009;SDS011;22076;52.182;5.404;2023-07-16T10:33:55;14.57;;;6.15;;
36009;SDS011;22076;52.182;5.404;2023-07-16T10:36:25;11.20;;;5.00;;
36009;SDS011;22076;52.182;5.404;2023-07-16T10:38:52;11.10;;;5.25;;
36009;SDS011;22076;52.182;5.404;2023-07-16T10:41:18;9.52;;;5.05;;
36009;SDS011;22076;52.182;5.404;2023-07-16T10:43:45;7.65;;;4.68;;
36009;SDS011;22076;52.182;5.404;2023-07-16T10:46:12;11.93;;;5.35;;
36009;SDS011;22076;52.182;5.404;2023-07-16T10:48:45;8.57;;;5.07;;
36009;SDS011;22076;52.182;5.404;2023-07-16T10:51:13;9.15;;;4.88;;
36009;SDS011;22076;52.182;5.404;2023-07-16T10:53:42;10.05;;;4.88;;
36009;SDS011;22076;52.182;5.404;2023-07-16T10:56:09;7.60;;;4.53;;
36009;SDS011;22076;52.182;5.404;2023-07-16T10:58:36;9.98;;;5.20;;
36009;SDS011;22076;52.182;5.404;2023-07-16T11:01:02;11.98;;;5.63;;
36009;SDS011;22076;52.182;5.404;2023-07-16T11:03:29;11.27;;;5.43;;
36009;SDS011;22076;52.182;5.404;2023-07-16T11:05:56;10.88;;;5.10;;
36009;SDS011;22076;52.182;5.404;2023-07-16T11:08:22;8.57;;;4.75;;
36009;SDS011;22076;52.182;5.404;2023-07-16T11:10:54;8.10;;;4.28;;
36009;SDS011;22076;52.182;5.404;2023-07-16T11:13:24;8.30;;;4.00;;
36009;SDS011;22076;52.182;5.404;2023-07-16T11:15:51;10.40;;;4.22;;
36009;SDS011;22076;52.182;5.404;2023-07-16T11:18:18;6.93;;;4.05;;
36009;SDS011;22076;52.182;5.404;2023-07-16T11:20:45;10.15;;;4.43;;
36009;SDS011;22076;52.182;5.404;2023-07-16T11:23:11;7.60;;;3.42;;
36009;SDS011;22076;52.182;5.404;2023-07-16T11:25:40;5.65;;;3.60;;
36009;SDS011;22076;52.182;5.404;2023-07-16T11:28:13;5.85;;;3.35;;
36009;SDS011;22076;52.182;5.404;2023-07-16T11:30:40;7.57;;;3.63;;
36009;SDS011;22076;52.182;5.404;2023-07-16T11:33:09;9.18;;;3.90;;
36009;SDS011;22076;52.182;5.404;2023-07-16T11:35:36;5.15;;;3.65;;
36009;SDS011;22076;52.182;5.404;2023-07-16T11:38:04;6.53;;;3.15;;
36009;SDS011;22076;52.182;5.404;2023-07-16T11:40:33;7.00;;;3.45;;
36009;SDS011;22076;52.182;5.404;2023-07-16T11:43:07;9.85;;;3.65;;
36009;SDS011;22076;52.182;5.404;2023-07-16T11:45:35;8.73;;;3.75;;
36009;SDS011;22076;52.182;5.404;2023-07-16T11:48:02;7.22;;;3.95;;
36009;SDS011;22076;52.182;5.404;2023-07-16T11:50:29;7.85;;;4.07;;
36009;SDS011;22076;52.182;5.404;2023-07-16T11:52:56;7.15;;;3.13;;
36009;SDS011;22076;52.182;5.404;2023-07-16T11:55:25;7.28;;;3.47;;
36009;SDS011;22076;52.182;5.404;2023-07-16T11:57:51;4.97;;;2.88;;
36009;SDS011;22076;52.182;5.404;2023-07-16T12:00:18;7.53;;;3.03;;
36009;SDS011;22076;52.182;5.404;2023-07-16T12:02:46;7.80;;;3.67;;
36009;SDS011;22076;52.182;5.404;2023-07-16T12:05:16;8.95;;;2.90;;
36009;SDS011;22076;52.182;5.404;2023-07-16T12:07:43;6.28;;;2.60;;
36009;SDS011;22076;52.182;5.404;2023-07-16T12:10:09;6.35;;;2.70;;
36009;SDS011;22076;52.182;5.404;2023-07-16T12:12:36;5.32;;;2.80;;
36009;SDS011;22076;52.182;5.404;2023-07-16T12:15:03;5.53;;;2.90;;
36009;SDS011;22076;52.182;5.404;2023-07-16T12:17:30;6.05;;;1.80;;
36009;SDS011;22076;52.182;5.404;2023-07-16T12:19:58;3.28;;;1.90;;
36009;SDS011;22076;52.182;5.404;2023-07-16T12:22:25;5.38;;;2.33;;
36009;SDS011;22076;52.182;5.404;2023-07-16T12:24:51;4.05;;;1.73;;
36009;SDS011;22076;52.182;5.404;2023-07-16T12:27:18;7.38;;;2.55;;
36009;SDS011;22076;52.182;5.404;2023-07-16T12:29:45;4.97;;;2.20;;
36009;SDS011;22076;52.182;5.404;2023-07-16T12:32:12;4.13;;;1.90;;
36009;SDS011;22076;52.182;5.404;2023-07-16T12:34:39;5.78;;;2.15;;
36009;SDS011;22076;52.182;5.404;2023-07-16T12:37:07;5.72;;;2.15;;
36009;SDS011;22076;52.182;5.404;2023-07-16T12:39:33;3.15;;;2.03;;
36009;SDS011;22076;52.182;5.404;2023-07-16T12:42:00;6.13;;;2.22;;
36009;SDS011;22076;52.182;5.404;2023-07-16T12:44:26;5.18;;;2.03;;
36009;SDS011;22076;52.182;5.404;2023-07-16T12:46:53;6.05;;;1.95;;
36009;SDS011;22076;52.182;5.404;2023-07-16T12:49:20;3.47;;;1.80;;
36009;SDS011;22076;52.182;5.404;2023-07-16T12:51:47;6.57;;;2.60;;
36009;SDS011;22076;52.182;5.404;2023-07-16T12:54:14;6.40;;;2.05;;
36009;SDS011;22076;52.182;5.404;2023-07-16T12:56:41;5.97;;;2.20;;
36009;SDS011;22076;52.182;5.404;2023-07-16T12:59:07;5.25;;;1.88;;
36009;SDS011;22076;52.182;5.404;2023-07-16T13:01:34;4.38;;;1.80;;
36009;SDS011;22076;52.182;5.404;2023-07-16T13:04:01;8.45;;;2.60;;
36009;SDS011;22076;52.182;5.404;2023-07-16T13:06:27;5.60;;;2.30;;
36009;SDS011;22076;52.182;5.404;2023-07-16T13:08:54;5.95;;;2.00;;
36009;SDS011;22076;52.182;5.404;2023-07-16T13:11:22;5.70;;;1.88;;
36009;SDS011;22076;52.182;5.404;2023-07-16T13:13:48;4.85;;;1.85;;
36009;SDS011;22076;52.182;5.404;2023-07-16T13:16:15;8.00;;;1.80;;
36009;SDS011;22076;52.182;5.404;2023-07-16T13:18:41;5.72;;;1.85;;
36009;SDS011;22076;52.182;5.404;2023-07-16T13:21:08;5.93;;;1.75;;
36009;SDS011;22076;52.182;5.404;2023-07-16T13:23:35;6.07;;;1.70;;
36009;SDS011;22076;52.182;5.404;2023-07-16T13:26:01;5.03;;;1.70;;
36009;SDS011;22076;52.182;5.404;2023-07-16T13:28:29;4.32;;;1.60;;
36009;SDS011;22076;52.182;5.404;2023-07-16T13:30:56;6.10;;;1.60;;
36009;SDS011;22076;52.182;5.404;2023-07-16T13:33:23;4.60;;;1.42;;
36009;SDS011;22076;52.182;5.404;2023-07-16T13:35:49;4.97;;;1.60;;
36009;SDS011;22076;52.182;5.404;2023-07-16T13:38:16;5.32;;;1.75;;
36009;SDS011;22076;52.182;5.404;2023-07-16T13:40:43;6.10;;;3.05;;
36009;SDS011;22076;52.182;5.404;2023-07-16T13:43:09;6.95;;;3.03;;
36009;SDS011;22076;52.182;5.404;2023-07-16T13:45:38;5.35;;;2.72;;
36009;SDS011;22076;52.182;5.404;2023-07-16T13:48:05;6.82;;;1.60;;
36009;SDS011;22076;52.182;5.404;2023-07-16T13:50:31;3.53;;;1.55;;
36009;SDS011;22076;52.182;5.404;2023-07-16T13:52:58;6.15;;;1.70;;
36009;SDS011;22076;52.182;5.404;2023-07-16T13:55:26;5.07;;;1.80;;
36009;SDS011;22076;52.182;5.404;2023-07-16T13:57:53;4.47;;;1.80;;
36009;SDS011;22076;52.182;5.404;2023-07-16T14:00:20;5.93;;;1.80;;
36009;SDS011;22076;52.182;5.404;2023-07-16T14:02:48;4.28;;;1.17;;
36009;SDS011;22076;52.182;5.404;2023-07-16T14:05:15;5.80;;;2.03;;
36009;SDS011;22076;52.182;5.404;2023-07-16T14:07:41;4.88;;;2.60;;
36009;SDS011;22076;52.182;5.404;2023-07-16T14:10:08;10.00;;;4.43;;
36009;SDS011;22076;52.182;5.404;2023-07-16T14:12:35;7.13;;;2.10;;
36009;SDS011;22076;52.182;5.404;2023-07-16T14:15:02;10.77;;;1.75;;
36009;SDS011;22076;52.182;5.404;2023-07-16T14:17:29;5.50;;;1.23;;
36009;SDS011;22076;52.182;5.404;2023-07-16T14:19:57;7.10;;;4.05;;
36009;SDS011;22076;52.182;5.404;2023-07-16T14:22:24;8.38;;;4.20;;
36009;SDS011;22076;52.182;5.404;2023-07-16T14:24:52;4.90;;;2.22;;
36009;SDS011;22076;52.182;5.404;2023-07-16T14:27:19;5.20;;;1.50;;
36009;SDS011;22076;52.182;5.404;2023-07-16T14:29:45;4.00;;;1.48;;
36009;SDS011;22076;52.182;5.404;2023-07-16T14:32:12;5.53;;;1.42;;
36009;SDS011;22076;52.182;5.404;2023-07-16T14:34:39;4.28;;;1.20;;
36009;SDS011;22076;52.182;5.404;2023-07-16T14:37:07;5.57;;;1.75;;
36009;SDS011;22076;52.182;5.404;2023-07-16T14:39:34;8.55;;;3.05;;
36009;SDS011;22076;52.182;5.404;2023-07-16T14:42:00;5.45;;;1.75;;
36009;SDS011;22076;52.182;5.404;2023-07-16T14:44:28;7.15;;;1.90;;